Davis, Illinois
Current Conditions -  °F | °C
As of 6:35 PM on Monday 22 Dec 2014 (Local Time) from KFEP Reporting Station
Haze Haze  
Wind Chill: 29°   Ceiling: 400
Heat Index: 36°   Visibility: 1.5mi
Dew Point: 36°   Wind: 9mph
Humidity: 98%   Direction: 110°ESE
Pressure: 29.62"   Gusts: NA
Location:  42.42°N, 89.41°W
Report Text: KFEP 230035Z AUTO 11008KT 1 1/2SM BR OVC004 02/02 A2962 RMK AO2 T00240021
Loading
Personal Weather Stations






























Interactive Weather Map New forecast layout! Learn more

10-Day Weather Forecast

Advertisements
Track Severe Weather on mobile